createdAt,value
2018-07-28T00:00:22.470Z,99801.72
2018-07-28T00:01:26.133Z,99793.53
2018-07-28T00:02:29.580Z,99790.52
2018-07-28T00:03:33.033Z,99787.53
2018-07-28T00:04:36.434Z,99794.14
2018-07-28T00:05:39.870Z,99783.52
2018-07-28T00:06:43.253Z,99784.52
2018-07-28T00:07:46.672Z,99783.73
2018-07-28T00:08:50.135Z,99785.92
2018-07-28T00:09:53.758Z,99779.52
2018-07-28T00:10:57.177Z,99782.11
2018-07-28T00:12:00.654Z,99784.70
2018-07-28T00:13:04.050Z,99778.13
2018-07-28T00:14:07.964Z,99776.91
2018-07-28T00:15:12.494Z,99781.11
2018-07-28T00:16:15.900Z,99783.12
2018-07-28T00:17:19.368Z,99777.70
2018-07-28T00:18:22.783Z,99779.09
2018-07-28T00:19:26.200Z,99778.48
2018-07-28T00:20:29.628Z,99774.29
2018-07-28T00:21:33.204Z,99776.48
2018-07-28T00:22:36.603Z,99768.69
2018-07-28T00:23:39.987Z,99770.09
2018-07-28T00:24:43.436Z,99768.69
2018-07-28T00:26:18.935Z,99772.28
2018-07-28T00:27:22.336Z,99774.47
2018-07-28T00:28:25.711Z,99771.67
2018-07-28T00:29:29.113Z,99769.48
2018-07-28T00:30:32.528Z,99769.48
2018-07-28T00:31:35.925Z,99770.27
2018-07-28T00:32:39.341Z,99775.69
2018-07-28T00:33:42.701Z,99773.86
2018-07-28T00:34:46.111Z,99771.67
2018-07-28T00:35:49.550Z,99776.66
2018-07-28T00:36:52.936Z,99776.48
2018-07-28T00:37:56.371Z,99773.86
2018-07-28T00:38:59.749Z,99770.88
2018-07-28T00:40:03.245Z,99768.88
2018-07-28T00:41:06.771Z,99769.05
2018-07-28T00:42:10.163Z,99764.85
2018-07-28T00:43:13.534Z,99769.84
2018-07-28T00:44:16.914Z,99763.45
2018-07-28T00:45:20.381Z,99767.66
2018-07-28T00:46:23.774Z,99761.44
2018-07-28T00:47:27.172Z,99761.87
2018-07-28T00:48:30.554Z,99758.45
2018-07-28T00:49:33.954Z,99758.64
2018-07-28T00:50:37.386Z,99756.45
2018-07-28T00:51:40.794Z,99754.25
2018-07-28T00:52:44.211Z,99752.06
2018-07-28T00:53:47.608Z,99754.25
2018-07-28T00:54:50.997Z,99752.25
2018-07-28T00:55:54.393Z,99752.25
2018-07-28T00:56:57.816Z,99753.65
2018-07-28T00:58:01.254Z,99757.84
2018-07-28T00:59:04.749Z,99755.23
2018-07-28T01:00:09.266Z,99759.25
2018-07-28T01:01:12.695Z,99755.23
2018-07-28T01:02:16.082Z,99755.23
2018-07-28T01:03:19.480Z,99749.63
2018-07-28T01:04:22.867Z,99751.64
2018-07-28T01:05:26.366Z,99753.04
2018-07-28T01:06:29.782Z,99743.84
2018-07-28T01:07:33.225Z,99750.42
2018-07-28T01:08:36.632Z,99748.05
2018-07-28T01:09:40.032Z,99747.44
2018-07-28T01:10:43.476Z,99745.42
2018-07-28T01:11:46.962Z,99746.64
2018-07-28T01:12:50.361Z,99746.03
2018-07-28T01:13:53.806Z,99743.84
2018-07-28T01:14:57.465Z,99751.03
2018-07-28T01:16:00.877Z,99744.64
2018-07-28T01:17:04.291Z,99744.64
2018-07-28T01:18:07.732Z,99746.64
2018-07-28T01:19:11.176Z,99748.23
2018-07-28T01:20:14.590Z,99751.03
2018-07-28T01:21:18.051Z,99739.64
2018-07-28T01:22:21.674Z,99745.42
2018-07-28T01:23:25.083Z,99743.42
2018-07-28T01:24:28.524Z,99745.42
2018-07-28T01:25:31.902Z,99746.64
2018-07-28T01:26:35.541Z,99748.84
2018-07-28T01:27:39.382Z,99748.84
2018-07-28T01:28:42.841Z,99744.64
2018-07-28T01:29:46.229Z,99749.81
2018-07-28T01:30:49.653Z,99749.02
2018-07-28T01:31:53.038Z,99754.63
2018-07-28T01:32:57.096Z,99756.63
2018-07-28T01:34:00.492Z,99772.04
2018-07-28T01:35:04.467Z,99774.23
2018-07-28T01:36:07.924Z,99783.42
2018-07-28T01:37:11.308Z,99770.64
2018-07-28T01:38:14.774Z,99777.03
2018-07-28T01:39:18.172Z,99777.45
2018-07-28T01:40:21.626Z,99771.43
2018-07-28T01:41:25.010Z,99767.66
2018-07-28T01:42:28.412Z,99764.24
2018-07-28T01:43:31.829Z,99761.44
2018-07-28T01:44:35.203Z,99760.04
2018-07-28T01:45:38.827Z,99756.63
2018-07-28T01:46:42.232Z,99761.44
2018-07-28T01:47:45.636Z,99770.64
2018-07-28T01:48:49.074Z,99780.44
2018-07-28T01:49:52.499Z,99784.46
2018-07-28T01:50:55.914Z,99783.06
2018-07-28T01:51:59.347Z,99779.65
2018-07-28T01:53:02.768Z,99774.05
2018-07-28T01:54:06.206Z,99761.44
2018-07-28T01:55:09.645Z,99753.83
2018-07-28T01:56:13.066Z,99746.03
2018-07-28T01:57:16.497Z,99744.81
2018-07-28T01:58:19.895Z,99744.81
2018-07-28T01:59:23.330Z,99741.05
2018-07-28T02:00:26.768Z,99746.83
2018-07-28T02:01:30.395Z,99758.22
2018-07-28T02:02:33.839Z,99758.03
2018-07-28T02:03:37.255Z,99764.42
2018-07-28T02:04:40.676Z,99771.43
2018-07-28T02:05:44.062Z,99769.42
2018-07-28T02:06:47.478Z,99762.23
2018-07-28T02:07:50.876Z,99748.41
2018-07-28T02:08:54.454Z,99739.83
2018-07-28T02:09:57.919Z,99728.02
2018-07-28T02:11:01.323Z,99730.20
2018-07-28T02:12:04.781Z,99728.80
2018-07-28T02:13:08.239Z,99733.61
2018-07-28T02:14:11.674Z,99726.00
2018-07-28T02:15:15.172Z,99716.20
2018-07-28T02:16:18.669Z,99718.81
2018-07-28T02:17:22.065Z,99719.42
2018-07-28T02:18:25.464Z,99712.61
2018-07-28T02:19:28.868Z,99713.03
2018-07-28T02:20:32.297Z,99713.22
2018-07-28T02:21:35.780Z,99709.63
2018-07-28T02:22:39.172Z,99701.22
2018-07-28T02:23:42.600Z,99697.63
2018-07-28T02:24:46.015Z,99696.23
2018-07-28T02:25:49.439Z,99697.63
2018-07-28T02:26:52.818Z,99697.81
2018-07-28T02:27:56.233Z,99697.81
2018-07-28T02:28:59.681Z,99693.42
2018-07-28T02:30:03.361Z,99694.22
2018-07-28T02:31:06.782Z,99692.20
2018-07-28T02:32:10.300Z,99699.20
2018-07-28T02:33:13.802Z,99698.60
2018-07-28T02:34:17.218Z,99692.81
2018-07-28T02:35:20.609Z,99697.81
2018-07-28T02:36:24.048Z,99693.00
2018-07-28T02:37:27.462Z,99694.22
2018-07-28T02:38:30.854Z,99692.39
2018-07-28T02:39:34.249Z,99689.77
2018-07-28T02:40:37.692Z,99687.58
2018-07-28T02:41:41.879Z,99682.83
2018-07-28T02:42:45.282Z,99685.27
2018-07-28T02:43:48.697Z,99676.90
2018-07-28T02:44:52.106Z,99683.17
2018-07-28T02:45:55.512Z,99678.42
2018-07-28T02:46:59.614Z,99683.30
2018-07-28T02:48:03.028Z,99686.73
2018-07-28T02:49:07.222Z,99690.20
2018-07-28T02:50:10.627Z,99696.05
2018-07-28T02:51:14.038Z,99698.30
2018-07-28T02:52:17.644Z,99693.75
2018-07-28T02:53:21.092Z,99694.15
2018-07-28T02:54:24.507Z,99696.09
2018-07-28T02:55:27.893Z,99693.55
2018-07-28T02:56:31.349Z,99691.84
2018-07-28T02:57:34.800Z,99688.44
2018-07-28T02:58:38.214Z,99694.03
2018-07-28T02:59:41.631Z,99685.45
2018-07-28T03:00:45.089Z,99689.65
2018-07-28T03:01:48.543Z,99691.66
2018-07-28T03:02:51.985Z,99698.47
2018-07-28T03:03:55.374Z,99726.87
2018-07-28T03:04:58.762Z,99744.09
2018-07-28T03:06:02.183Z,99785.45
2018-07-28T03:07:05.898Z,99808.45
2018-07-28T03:08:09.763Z,99806.83
2018-07-28T03:09:13.804Z,99804.25
2018-07-28T03:10:17.235Z,99796.04
2018-07-28T03:11:20.621Z,99772.25
2018-07-28T03:12:24.023Z,99774.27
2018-07-28T03:13:27.448Z,99784.05
2018-07-28T03:14:30.883Z,99782.66
2018-07-28T03:15:36.247Z,99779.86
2018-07-28T03:16:39.666Z,99787.24
2018-07-28T03:17:43.064Z,99791.44
2018-07-28T03:18:46.508Z,99792.84
2018-07-28T03:19:49.965Z,99792.05
2018-07-28T03:20:53.404Z,99780.25
2018-07-28T03:21:56.795Z,99768.27
2018-07-28T03:23:00.922Z,99775.26
2018-07-28T03:24:04.382Z,99783.66
2018-07-28T03:25:07.846Z,99790.65
2018-07-28T03:26:11.311Z,99784.87
2018-07-28T03:27:14.738Z,99765.28
2018-07-28T03:28:18.236Z,99740.89
2018-07-28T03:29:21.625Z,99728.91
2018-07-28T03:30:25.296Z,99749.89
2018-07-28T03:31:28.727Z,99773.48
2018-07-28T03:32:32.098Z,99790.27
2018-07-28T03:33:35.512Z,99784.68
2018-07-28T03:34:38.939Z,99766.67
2018-07-28T03:35:42.363Z,99734.50
2018-07-28T03:36:45.745Z,99745.51
2018-07-28T03:37:49.147Z,99773.48
2018-07-28T03:38:52.546Z,99783.70
2018-07-28T03:39:55.966Z,99778.89
2018-07-28T03:40:59.380Z,99759.13
2018-07-28T03:42:02.800Z,99733.94
2018-07-28T03:43:06.428Z,99727.19
2018-07-28T03:44:09.841Z,99758.38
2018-07-28T03:45:13.292Z,99780.58
2018-07-28T03:46:16.673Z,99785.75
2018-07-28T03:47:20.087Z,99761.78
2018-07-28T03:48:23.492Z,99741.22
2018-07-28T03:49:26.900Z,99729.84
2018-07-28T03:50:30.316Z,99742.86
2018-07-28T03:51:33.720Z,99759.05
2018-07-28T03:52:37.186Z,99766.05
2018-07-28T03:53:40.857Z,99766.47
2018-07-28T03:54:44.238Z,99766.66
2018-07-28T03:55:47.656Z,99756.86
2018-07-28T03:56:51.081Z,99749.08
2018-07-28T03:57:54.494Z,99745.67
2018-07-28T03:58:57.870Z,99749.87
2018-07-28T04:00:01.243Z,99749.08
2018-07-28T04:01:04.730Z,99760.08
2018-07-28T04:02:08.180Z,99764.27
2018-07-28T04:03:11.599Z,99767.27
2018-07-28T04:04:15.059Z,99758.08
2018-07-28T04:05:18.476Z,99753.88
2018-07-28T04:06:21.909Z,99749.50
2018-07-28T04:07:25.329Z,99746.70
2018-07-28T04:08:28.736Z,99753.32
2018-07-28T04:09:32.156Z,99753.13
2018-07-28T04:10:35.584Z,99750.16
2018-07-28T04:11:39.166Z,99741.57
2018-07-28T04:12:42.600Z,99739.80
2018-07-28T04:13:46.000Z,99742.78
2018-07-28T04:14:49.397Z,99721.44
2018-07-28T04:15:52.800Z,99727.82
2018-07-28T04:16:56.226Z,99725.44
2018-07-28T04:17:59.617Z,99731.04
2018-07-28T04:19:03.024Z,99724.66
2018-07-28T04:20:06.445Z,99733.05
2018-07-28T04:21:09.887Z,99738.64
2018-07-28T04:22:13.342Z,99724.66
2018-07-28T04:23:16.756Z,99731.64
2018-07-28T04:24:20.180Z,99715.47
2018-07-28T04:25:23.980Z,99711.06
2018-07-28T04:26:27.407Z,99714.67
2018-07-28T04:27:30.936Z,99717.83
2018-07-28T04:28:34.358Z,99722.63
2018-07-28T04:29:37.829Z,99722.63
2018-07-28T04:30:41.192Z,99724.03
2018-07-28T04:31:44.585Z,99728.44
2018-07-28T04:32:48.042Z,99710.66
2018-07-28T04:33:51.425Z,99709.44
2018-07-28T04:34:54.859Z,99704.67
2018-07-28T04:35:58.241Z,99699.88
2018-07-28T04:37:01.710Z,99696.86
2018-07-28T04:38:05.105Z,99696.86
2018-07-28T04:39:10.457Z,99703.27
2018-07-28T04:40:13.894Z,99698.47
2018-07-28T04:41:17.371Z,99702.45
2018-07-28T04:42:20.815Z,99695.45
2018-07-28T04:43:24.274Z,99698.86
2018-07-28T04:44:27.715Z,99699.66
2018-07-28T04:45:31.089Z,99695.27
2018-07-28T04:46:34.720Z,99692.48
2018-07-28T04:47:38.110Z,99695.45
2018-07-28T04:48:41.525Z,99688.28
2018-07-28T04:49:44.951Z,99691.27
2018-07-28T04:50:48.380Z,99691.08
2018-07-28T04:51:51.764Z,99692.48
2018-07-28T04:52:55.173Z,99684.88
2018-07-28T04:53:58.560Z,99683.90
2018-07-28T04:55:02.273Z,99677.52
2018-07-28T04:56:06.468Z,99678.72
2018-07-28T04:57:09.871Z,99679.94
2018-07-28T04:58:13.281Z,99667.17
2018-07-28T04:59:16.858Z,99668.38
2018-07-28T05:00:20.282Z,99668.98
2018-07-28T05:01:23.676Z,99662.60
2018-07-28T05:02:28.058Z,99667.83
2018-07-28T05:03:31.503Z,99666.23
2018-07-28T05:04:34.897Z,99663.86
2018-07-28T05:05:38.306Z,99666.48
2018-07-28T05:06:41.713Z,99673.06
2018-07-28T05:07:45.159Z,99676.28
2018-07-28T05:08:48.580Z,99674.70
2018-07-28T05:09:51.996Z,99680.70
2018-07-28T05:10:55.378Z,99673.72
2018-07-28T05:11:58.798Z,99673.72
2018-07-28T05:13:02.223Z,99673.72
2018-07-28T05:14:05.636Z,99669.15
2018-07-28T05:15:09.086Z,99661.55
2018-07-28T05:16:12.524Z,99662.53
2018-07-28T05:17:15.955Z,99652.56
2018-07-28T05:18:19.336Z,99662.53
2018-07-28T05:19:22.726Z,99659.13
2018-07-28T05:20:26.155Z,99658.71
2018-07-28T05:21:29.612Z,99658.90
2018-07-28T05:22:33.001Z,99663.88
2018-07-28T05:23:36.395Z,99661.88
2018-07-28T05:24:39.811Z,99659.88
2018-07-28T05:25:43.177Z,99663.46
2018-07-28T05:26:46.566Z,99661.45
2018-07-28T05:27:49.991Z,99662.28
2018-07-28T05:28:53.386Z,99659.48
2018-07-28T05:29:56.768Z,99669.27
2018-07-28T05:31:00.234Z,99660.67
2018-07-28T05:32:03.713Z,99663.68
2018-07-28T05:33:07.140Z,99667.88
2018-07-28T05:34:10.554Z,99665.08
2018-07-28T05:35:13.968Z,99663.68
2018-07-28T05:36:17.360Z,99663.08
2018-07-28T05:37:20.749Z,99663.46
2018-07-28T05:38:24.151Z,99667.05
2018-07-28T05:39:27.632Z,99669.05
2018-07-28T05:40:31.043Z,99674.46
2018-07-28T05:41:34.440Z,99686.63
2018-07-28T05:42:37.888Z,99693.04
2018-07-28T05:43:41.281Z,99707.02
2018-07-28T05:44:44.676Z,99712.61
2018-07-28T05:45:48.149Z,99713.59
2018-07-28T05:46:51.587Z,99720.58
2018-07-28T05:47:54.978Z,99724.78
2018-07-28T05:48:58.394Z,99723.38
2018-07-28T05:50:01.841Z,99730.37
2018-07-28T05:51:05.276Z,99729.58
2018-07-28T05:52:08.730Z,99725.98
2018-07-28T05:53:12.114Z,99734.98
2018-07-28T05:54:15.510Z,99730.97
2018-07-28T05:55:18.905Z,99720.78
2018-07-28T05:56:22.339Z,99731.36
2018-07-28T05:57:25.879Z,99727.99
2018-07-28T05:58:29.271Z,99725.20
2018-07-28T05:59:32.805Z,99720.78
2018-07-28T06:00:36.247Z,99725.20
2018-07-28T06:01:39.680Z,99740.36
2018-07-28T06:02:43.143Z,99740.36
2018-07-28T06:03:46.497Z,99740.77
2018-07-28T06:04:49.894Z,99740.97
2018-07-28T06:05:53.310Z,99736.58
2018-07-28T06:06:56.754Z,99746.55
2018-07-28T06:08:00.210Z,99755.26
2018-07-28T06:09:05.057Z,99766.77
2018-07-28T06:10:08.522Z,99774.44
2018-07-28T06:11:12.161Z,99777.31
2018-07-28T06:12:15.580Z,99777.58
2018-07-28T06:13:18.977Z,99771.42
2018-07-28T06:14:23.130Z,99770.31
2018-07-28T06:15:26.549Z,99773.90
2018-07-28T06:16:30.007Z,99778.13
2018-07-28T06:17:33.396Z,99768.62
2018-07-28T06:18:37.244Z,99776.21
2018-07-28T06:19:41.022Z,99770.25
2018-07-28T06:20:44.768Z,99763.05
2018-07-28T06:21:48.445Z,99755.08
2018-07-28T06:22:51.841Z,99764.05
2018-07-28T06:23:55.258Z,99771.45
2018-07-28T06:24:58.672Z,99768.66
2018-07-28T06:26:02.108Z,99771.48
2018-07-28T06:27:05.557Z,99774.30
2018-07-28T06:28:09.501Z,99776.45
2018-07-28T06:29:12.921Z,99766.69
2018-07-28T06:30:16.309Z,99765.48
2018-07-28T06:31:19.734Z,99764.52
2018-07-28T06:32:23.179Z,99770.08
2018-07-28T06:33:26.608Z,99773.06
2018-07-28T06:34:30.010Z,99781.05
2018-07-28T06:35:33.440Z,99789.04
2018-07-28T06:36:36.894Z,99789.26
2018-07-28T06:37:40.292Z,99789.86
2018-07-28T06:38:43.860Z,99787.89
2018-07-28T06:39:47.261Z,99791.88
2018-07-28T06:40:50.709Z,99796.88
2018-07-28T06:41:54.117Z,99788.94
2018-07-28T06:42:57.572Z,99790.91
2018-07-28T06:44:01.058Z,99794.16
2018-07-28T06:45:04.788Z,99798.53
2018-07-28T06:46:08.313Z,99807.09
2018-07-28T06:47:11.805Z,99805.70
2018-07-28T06:48:15.209Z,99803.92
2018-07-28T06:49:18.594Z,99801.70
2018-07-28T06:50:21.978Z,99804.73
2018-07-28T06:51:25.388Z,99801.74
2018-07-28T06:52:28.828Z,99800.55
2018-07-28T06:53:32.255Z,99804.34
2018-07-28T06:54:35.690Z,99798.77
2018-07-28T06:55:39.141Z,99804.75
2018-07-28T06:56:42.613Z,99807.97
2018-07-28T06:57:46.016Z,99814.73
2018-07-28T06:58:49.451Z,99812.56
2018-07-28T06:59:53.114Z,99809.98
2018-07-28T07:00:56.513Z,99811.98
2018-07-28T07:01:59.912Z,99808.59
2018-07-28T07:03:03.389Z,99811.16
2018-07-28T07:04:06.843Z,99811.16
2018-07-28T07:05:10.311Z,99819.75
2018-07-28T07:06:13.730Z,99819.38
2018-07-28T07:07:17.093Z,99824.33
2018-07-28T07:08:20.479Z,99825.94
2018-07-28T07:09:23.846Z,99826.35
2018-07-28T07:10:27.264Z,99830.33
2018-07-28T07:11:30.691Z,99826.75
2018-07-28T07:12:34.071Z,99833.52
2018-07-28T07:13:37.474Z,99828.14
2018-07-28T07:14:40.933Z,99828.73
2018-07-28T07:15:44.400Z,99832.51
2018-07-28T07:16:47.772Z,99840.27
2018-07-28T07:17:51.172Z,99840.89
2018-07-28T07:18:54.596Z,99844.66
2018-07-28T07:19:58.009Z,99841.87
2018-07-28T07:21:01.424Z,99843.66
2018-07-28T07:22:04.860Z,99844.84
2018-07-28T07:23:08.265Z,99839.69
2018-07-28T07:24:11.696Z,99838.50
2018-07-28T07:25:15.269Z,99839.88
2018-07-28T07:26:18.665Z,99834.69
2018-07-28T07:27:22.177Z,99833.52
2018-07-28T07:28:25.596Z,99832.51
2018-07-28T07:29:29.032Z,99834.69
2018-07-28T07:30:32.628Z,99829.72
2018-07-28T07:31:36.009Z,99827.92
2018-07-28T07:32:39.433Z,99833.08
2018-07-28T07:33:42.865Z,99835.09
2018-07-28T07:34:46.331Z,99838.27
2018-07-28T07:35:49.792Z,99834.09
2018-07-28T07:36:53.194Z,99836.06
2018-07-28T07:37:56.604Z,99837.47
2018-07-28T07:39:00.051Z,99838.25
2018-07-28T07:40:03.586Z,99836.27
2018-07-28T07:41:07.033Z,99836.69
2018-07-28T07:42:10.471Z,99837.66
2018-07-28T07:43:13.880Z,99830.07
2018-07-28T07:44:17.312Z,99825.09
2018-07-28T07:45:20.748Z,99822.12
2018-07-28T07:46:24.195Z,99825.52
2018-07-28T07:47:27.669Z,99828.28
2018-07-28T07:48:31.005Z,99824.70
2018-07-28T07:49:34.400Z,99820.91
2018-07-28T07:50:37.794Z,99826.50
2018-07-28T07:51:41.212Z,99826.70
2018-07-28T07:52:44.828Z,99827.48
2018-07-28T07:53:48.287Z,99822.28
2018-07-28T07:54:51.684Z,99818.09
2018-07-28T07:55:55.087Z,99819.09
2018-07-28T07:56:58.517Z,99818.11
2018-07-28T07:58:02.084Z,99819.10
2018-07-28T07:59:05.626Z,99812.71
2018-07-28T08:00:10.011Z,99813.29
2018-07-28T08:01:13.496Z,99806.71
2018-07-28T08:02:16.912Z,99796.13
2018-07-28T08:03:20.357Z,99794.71
2018-07-28T08:04:24.155Z,99792.69
2018-07-28T08:05:27.876Z,99788.89
2018-07-28T08:06:31.394Z,99790.10
2018-07-28T08:07:34.824Z,99788.88
2018-07-28T08:08:38.840Z,99786.88
2018-07-28T08:09:42.248Z,99794.43
2018-07-28T08:10:45.665Z,99802.18
2018-07-28T08:11:49.060Z,99804.56
2018-07-28T08:12:52.447Z,99812.17
2018-07-28T08:13:55.869Z,99816.15
2018-07-28T08:14:59.580Z,99822.11
2018-07-28T08:16:03.055Z,99827.29
2018-07-28T08:17:06.516Z,99839.03
2018-07-28T08:18:09.936Z,99846.20
2018-07-28T08:19:13.338Z,99849.19
2018-07-28T08:20:16.838Z,99859.98
2018-07-28T08:21:20.252Z,99855.20
2018-07-28T08:22:23.653Z,99859.77
2018-07-28T08:23:27.096Z,99858.75
2018-07-28T08:24:30.512Z,99855.16
2018-07-28T08:25:33.880Z,99863.33
2018-07-28T08:26:37.366Z,99869.11
2018-07-28T08:27:40.772Z,99871.30
2018-07-28T08:28:44.208Z,99876.47
2018-07-28T08:29:47.600Z,99878.06
2018-07-28T08:30:51.000Z,99881.05
2018-07-28T08:31:54.400Z,99885.42
2018-07-28T08:32:57.829Z,99888.41
2018-07-28T08:34:01.264Z,99894.22
2018-07-28T08:35:05.951Z,99895.02
2018-07-28T08:36:09.365Z,99897.20
2018-07-28T08:37:12.818Z,99889.02
2018-07-28T08:38:16.244Z,99894.80
2018-07-28T08:39:19.723Z,99884.42
2018-07-28T08:40:25.198Z,99893.38
2018-07-28T08:41:28.588Z,99890.58
2018-07-28T08:42:31.989Z,99888.78
2018-07-28T08:43:35.407Z,99886.97
2018-07-28T08:44:38.896Z,99885.57
2018-07-28T08:45:42.282Z,99885.16
2018-07-28T08:46:45.680Z,99888.75
2018-07-28T08:47:49.049Z,99883.95
2018-07-28T08:48:52.508Z,99889.73
2018-07-28T08:49:55.891Z,99889.13
2018-07-28T08:50:59.262Z,99888.34
2018-07-28T08:52:02.696Z,99891.33
2018-07-28T08:53:06.488Z,99895.52
2018-07-28T08:54:09.925Z,99889.93
2018-07-28T08:55:13.355Z,99885.95
2018-07-28T08:56:16.758Z,99895.13
2018-07-28T08:57:20.156Z,99899.33
2018-07-28T08:58:23.568Z,99897.52
2018-07-28T08:59:26.972Z,99900.91
2018-07-28T09:00:30.456Z,99908.69
2018-07-28T09:01:33.857Z,99903.11
2018-07-28T09:02:37.334Z,99908.69
2018-07-28T09:03:40.790Z,99899.11
2018-07-28T09:04:44.207Z,99902.50
2018-07-28T09:05:47.641Z,99899.71
2018-07-28T09:06:51.050Z,99894.13
2018-07-28T09:07:54.474Z,99895.11
2018-07-28T09:08:57.846Z,99896.70
2018-07-28T09:10:01.645Z,99892.50
2018-07-28T09:11:05.097Z,99900.28
2018-07-28T09:12:08.537Z,99894.09
2018-07-28T09:13:11.969Z,99897.69
2018-07-28T09:14:15.377Z,99899.27
2018-07-28T09:15:18.776Z,99897.49
2018-07-28T09:16:22.243Z,99900.70
2018-07-28T09:17:25.630Z,99896.13
2018-07-28T09:18:29.021Z,99897.73
2018-07-28T09:19:32.438Z,99900.53
2018-07-28T09:20:35.864Z,99902.94
2018-07-28T09:21:39.285Z,99904.16
2018-07-28T09:22:42.738Z,99906.98
2018-07-28T09:23:46.152Z,99904.80
2018-07-28T09:24:49.534Z,99905.39
2018-07-28T09:25:52.926Z,99905.39
2018-07-28T09:26:56.343Z,99903.17
2018-07-28T09:27:59.722Z,99905.97
2018-07-28T09:29:03.129Z,99899.80
2018-07-28T09:30:07.590Z,99895.61
2018-07-28T09:31:11.019Z,99898.59
2018-07-28T09:32:14.483Z,99898.81
2018-07-28T09:33:18.096Z,99900.21
2018-07-28T09:34:21.506Z,99902.42
2018-07-28T09:35:24.890Z,99902.84
2018-07-28T09:36:28.288Z,99903.05
2018-07-28T09:37:31.890Z,99905.23
2018-07-28T09:38:35.283Z,99902.25
2018-07-28T09:39:38.680Z,99904.83
2018-07-28T09:40:42.160Z,99907.81
2018-07-28T09:41:45.526Z,99909.21
2018-07-28T09:42:48.958Z,99919.57
2018-07-28T09:43:52.358Z,99912.39
2018-07-28T09:44:55.750Z,99909.63
2018-07-28T09:45:59.156Z,99913.21
2018-07-28T09:47:02.579Z,99908.61
2018-07-28T09:48:06.503Z,99903.39
2018-07-28T09:49:09.908Z,99904.40
2018-07-28T09:50:13.291Z,99904.59
2018-07-28T09:51:16.735Z,99901.20
2018-07-28T09:52:20.118Z,99899.20
2018-07-28T09:53:23.544Z,99894.58
2018-07-28T09:54:27.335Z,99892.39
2018-07-28T09:55:30.758Z,99888.39
2018-07-28T09:56:34.148Z,99882.83
2018-07-28T09:57:37.547Z,99884.23
2018-07-28T09:58:40.968Z,99890.61
2018-07-28T09:59:44.376Z,99887.02
2018-07-28T10:00:53.155Z,99890.20
2018-07-28T10:01:56.601Z,99890.39
2018-07-28T10:03:00.001Z,99891.79
2018-07-28T10:04:03.492Z,99892.58
2018-07-28T10:05:06.884Z,99887.37
2018-07-28T10:06:10.313Z,99887.37
2018-07-28T10:07:13.764Z,99890.36
2018-07-28T10:08:17.151Z,99890.56
2018-07-28T10:09:20.541Z,99891.35
2018-07-28T10:10:23.952Z,99891.35
2018-07-28T10:11:27.358Z,99889.55
2018-07-28T10:12:30.784Z,99895.33
2018-07-28T10:13:34.224Z,99891.73
2018-07-28T10:14:37.617Z,99896.53
2018-07-28T10:15:41.253Z,99894.34
2018-07-28T10:16:44.659Z,99898.53
2018-07-28T10:17:48.061Z,99896.14
2018-07-28T10:18:51.461Z,99892.75
2018-07-28T10:19:54.880Z,99895.95
2018-07-28T10:20:58.378Z,99896.14
2018-07-28T10:22:01.818Z,99896.55
2018-07-28T10:23:05.684Z,99893.76
2018-07-28T10:24:09.116Z,99892.97
2018-07-28T10:25:12.503Z,99894.36
2018-07-28T10:26:15.950Z,99892.78
2018-07-28T10:27:19.354Z,99899.76
2018-07-28T10:28:22.762Z,99901.16
2018-07-28T10:29:26.152Z,99894.77
2018-07-28T10:30:29.650Z,99890.58
2018-07-28T10:31:33.052Z,99893.98
2018-07-28T10:32:37.154Z,99894.58
2018-07-28T10:33:40.572Z,99895.19
2018-07-28T10:34:43.972Z,99896.98
2018-07-28T10:35:47.405Z,99894.80
2018-07-28T10:36:50.829Z,99889.21
2018-07-28T10:37:54.282Z,99890.42
2018-07-28T10:38:57.680Z,99895.41
2018-07-28T10:40:01.089Z,99898.80
2018-07-28T10:41:04.660Z,99899.98
2018-07-28T10:42:08.136Z,99895.98
2018-07-28T10:43:11.554Z,99895.57
2018-07-28T10:44:14.944Z,99895.95
2018-07-28T10:45:18.349Z,99889.95
2018-07-28T10:46:22.162Z,99897.13
2018-07-28T10:47:25.562Z,99890.53
2018-07-28T10:48:28.957Z,99894.53
2018-07-28T10:49:32.455Z,99897.71
2018-07-28T10:50:35.845Z,99896.89
2018-07-28T10:51:39.270Z,99895.88
2018-07-28T10:52:42.656Z,99896.06
2018-07-28T10:53:46.199Z,99895.44
2018-07-28T10:54:51.802Z,99898.67
2018-07-28T10:55:55.189Z,99893.47
2018-07-28T10:56:58.600Z,99898.05
2018-07-28T10:58:01.980Z,99901.02
2018-07-28T10:59:05.386Z,99894.80
2018-07-28T11:00:09.290Z,99897.79
2018-07-28T11:01:12.684Z,99895.98
2018-07-28T11:02:16.126Z,99901.16
2018-07-28T11:03:19.556Z,99898.58
2018-07-28T11:04:22.953Z,99895.37
2018-07-28T11:05:26.532Z,99898.55
2018-07-28T11:06:29.964Z,99896.55
2018-07-28T11:07:33.442Z,99889.94
2018-07-28T11:08:36.838Z,99895.12
2018-07-28T11:09:40.259Z,99892.52
2018-07-28T11:10:43.676Z,99890.52
2018-07-28T11:11:47.115Z,99884.51
2018-07-28T11:12:50.540Z,99886.70
2018-07-28T11:13:53.934Z,99886.28
2018-07-28T11:14:57.339Z,99886.48
2018-07-28T11:16:00.748Z,99886.48
2018-07-28T11:17:04.223Z,99886.09
2018-07-28T11:18:07.667Z,99891.08
2018-07-28T11:19:11.059Z,99884.28
2018-07-28T11:20:14.466Z,99882.28
2018-07-28T11:21:17.868Z,99877.48
2018-07-28T11:22:21.303Z,99878.87
2018-07-28T11:23:35.994Z,99875.48
2018-07-28T11:24:39.463Z,99877.67
2018-07-28T11:25:42.862Z,99871.48
2018-07-28T11:26:46.284Z,99876.47
2018-07-28T11:27:49.679Z,99875.06
2018-07-28T11:28:53.714Z,99871.66
2018-07-28T11:29:57.125Z,99880.24
2018-07-28T11:31:00.526Z,99873.06
2018-07-28T11:32:15.195Z,99871.66
2018-07-28T11:33:29.885Z,99878.84
2018-07-28T11:34:44.640Z,99875.86
2018-07-28T11:35:59.485Z,99880.66
2018-07-28T11:38:17.119Z,99877.26
2018-07-28T11:39:31.845Z,99875.06
2018-07-28T11:40:46.576Z,99877.06
2018-07-28T11:42:01.326Z,99881.27
2018-07-28T11:43:16.116Z,99874.27
2018-07-28T11:45:23.173Z,99865.09
2018-07-28T11:46:26.597Z,99864.67
2018-07-28T11:47:30.000Z,99866.27
2018-07-28T11:48:33.373Z,99862.26
2018-07-28T11:49:36.785Z,99857.88
2018-07-28T11:50:40.172Z,99865.66
2018-07-28T11:51:43.591Z,99864.45
2018-07-28T11:52:46.986Z,99865.25
2018-07-28T11:53:50.400Z,99870.23
2018-07-28T11:54:53.841Z,99866.03
2018-07-28T11:55:57.247Z,99862.83
2018-07-28T11:57:00.618Z,99867.40
2018-07-28T11:58:04.025Z,99869.59
2018-07-28T11:59:07.457Z,99878.58
2018-07-28T12:00:11.228Z,99878.77
2018-07-28T12:01:14.602Z,99877.38
2018-07-28T12:02:18.010Z,99873.40
2018-07-28T12:03:21.451Z,99875.38
2018-07-28T12:04:25.083Z,99869.20
2018-07-28T12:05:28.681Z,99876.20
2018-07-28T12:06:32.087Z,99876.20
2018-07-28T12:07:35.593Z,99875.78
2018-07-28T12:08:39.032Z,99875.98
2018-07-28T12:09:42.473Z,99876.20
2018-07-28T12:10:45.875Z,99874.58
2018-07-28T12:11:49.405Z,99871.18
2018-07-28T12:12:52.830Z,99875.38
2018-07-28T12:13:56.248Z,99877.38
2018-07-28T12:14:59.641Z,99877.19
2018-07-28T12:16:03.062Z,99877.38
2018-07-28T12:17:07.016Z,99876.39
2018-07-28T12:18:10.451Z,99879.79
2018-07-28T12:19:13.888Z,99879.79
2018-07-28T12:20:17.269Z,99878.58
2018-07-28T12:21:20.694Z,99875.98
2018-07-28T12:22:24.154Z,99874.39
2018-07-28T12:23:27.568Z,99875.19
2018-07-28T12:24:31.002Z,99870.20
2018-07-28T12:25:34.380Z,99878.77
2018-07-28T12:26:37.802Z,99877.59
2018-07-28T12:27:41.320Z,99874.80
2018-07-28T12:28:44.744Z,99876.38
2018-07-28T12:29:48.141Z,99874.98